Time,TemperatureF,DewpointF,PressureIn,WindDirection,WindDirectionDegrees,WindSpeedMPH,WindSpeedGustMPH,Humidity,HourlyPrecipIn,Conditions,Clouds,dailyrainin,SoftwareType,DateUTC
2013-08-24 00:02:00,43.3,40.0,29.87,SSW,208,1.0,2.0,89,0.00,,,0.00,weatherlink.com 1.10,2013-08-24 06:02:00,
2013-08-24 00:17:00,43.0,40.0,29.88,SSW,202,0.0,1.0,90,0.00,,,0.00,weatherlink.com 1.10,2013-08-24 06:17:00,
2013-08-24 00:32:00,42.9,40.0,29.88,SW,217,1.0,3.0,90,0.00,,,0.00,weatherlink.com 1.10,2013-08-24 06:32:00,
2013-08-24 00:47:00,42.7,40.0,29.88,SSW,203,0.0,1.0,90,0.00,,,0.00,weatherlink.com 1.10,2013-08-24 06:47:00,
2013-08-24 01:02:00,42.3,40.0,29.88,SSW,203,1.0,1.0,90,0.00,,,0.00,weatherlink.com 1.10,2013-08-24 07:02:00,
2013-08-24 01:17:00,42.5,40.0,29.88,SSW,210,0.0,2.0,90,0.00,,,0.00,weatherlink.com 1.10,2013-08-24 07:17:00,
2013-08-24 01:32:00,42.4,40.0,29.88,SSW,210,0.0,0.0,90,0.00,,,0.00,weatherlink.com 1.10,2013-08-24 07:32:00,
2013-08-24 01:47:00,41.7,39.0,29.89,SSW,210,0.0,1.0,91,0.00,,,0.00,weatherlink.com 1.10,2013-08-24 07:47:00,
2013-08-24 02:02:00,41.8,40.0,29.90,SSW,210,1.0,2.0,92,0.00,,,0.00,weatherlink.com 1.10,2013-08-24 08:02:00,
2013-08-24 02:17:00,41.7,40.0,29.91,SSW,207,1.0,1.0,92,0.00,,,0.00,weatherlink.com 1.10,2013-08-24 08:17:00,
2013-08-24 02:32:00,41.8,39.0,29.91,SSW,200,0.0,1.0,91,0.00,,,0.00,weatherlink.com 1.10,2013-08-24 08:32:00,
2013-08-24 02:47:00,41.6,40.0,29.93,SSW,200,0.0,0.0,93,0.00,,,0.00,weatherlink.com 1.10,2013-08-24 08:47:00,
2013-08-24 03:03:00,41.6,40.0,29.94,SSW,200,0.0,1.0,93,0.00,,,0.00,weatherlink.com 1.10,2013-08-24 09:03:00,
2013-08-24 03:18:00,42.3,41.0,29.95,SSW,200,0.0,2.0,93,0.00,,,0.00,weatherlink.com 1.10,2013-08-24 09:18:00,
2013-08-24 03:33:00,42.8,41.0,29.95,SSW,198,0.0,1.0,93,0.00,,,0.00,weatherlink.com 1.10,2013-08-24 09:33:00,
2013-08-24 03:48:00,43.7,42.0,29.95,SSW,198,0.0,1.0,92,0.00,,,0.00,weatherlink.com 1.10,2013-08-24 09:48:00,
2013-08-24 04:03:00,44.2,42.0,29.95,SSW,198,0.0,1.0,91,0.00,,,0.00,weatherlink.com 1.10,2013-08-24 10:03:00,
2013-08-24 04:18:00,44.5,42.0,29.95,SSW,210,0.0,1.0,91,0.00,,,0.00,weatherlink.com 1.10,2013-08-24 10:18:00,
2013-08-24 04:33:00,44.5,43.0,29.95,SSW,210,0.0,0.0,93,0.00,,,0.00,weatherlink.com 1.10,2013-08-24 10:33:00,
2013-08-24 04:48:00,44.7,43.0,29.95,SSW,210,0.0,1.0,92,0.00,,,0.00,weatherlink.com 1.10,2013-08-24 10:48:00,
2013-08-24 05:03:00,45.3,43.0,29.94,SSW,205,0.0,1.0,92,0.00,,,0.00,weatherlink.com 1.10,2013-08-24 11:03:00,
2013-08-24 05:18:00,45.0,43.0,29.94,SSW,205,0.0,0.0,91,0.00,,,0.00,weatherlink.com 1.10,2013-08-24 11:18:00,
2013-08-24 05:33:00,43.9,42.0,29.94,SSW,205,0.0,1.0,92,0.00,,,0.00,weatherlink.com 1.10,2013-08-24 11:33:00,
2013-08-24 05:48:00,43.1,41.0,29.94,SSW,205,0.0,1.0,93,0.00,,,0.00,weatherlink.com 1.10,2013-08-24 11:48:00,
2013-08-24 06:03:00,43.1,42.0,29.93,SSW,200,0.0,1.0,94,0.00,,,0.00,weatherlink.com 1.10,2013-08-24 12:03:00,
2013-08-24 06:18:00,42.9,41.0,29.94,SSW,200,0.0,0.0,94,0.00,,,0.00,weatherlink.com 1.10,2013-08-24 12:18:00,
2013-08-24 06:33:00,43.5,42.0,29.93,SSW,201,0.0,1.0,95,0.00,,,0.00,weatherlink.com 1.10,2013-08-24 12:33:00,
2013-08-24 06:48:00,43.3,42.0,29.94,SSW,195,0.0,0.0,95,0.00,,,0.00,weatherlink.com 1.10,2013-08-24 12:48:00,
2013-08-24 07:03:00,43.9,43.0,29.95,SSW,195,0.0,1.0,96,0.01,,,0.01,weatherlink.com 1.10,2013-08-24 13:03:00,
2013-08-24 07:18:00,44.7,44.0,29.95,SSW,195,0.0,1.0,96,0.01,,,0.01,weatherlink.com 1.10,2013-08-24 13:18:00,
2013-08-24 07:33:00,45.6,44.0,29.95,SSW,195,0.0,0.0,95,0.01,,,0.01,weatherlink.com 1.10,2013-08-24 13:33:00,
2013-08-24 07:48:00,47.4,46.0,29.95,SSW,195,0.0,1.0,94,0.01,,,0.01,weatherlink.com 1.10,2013-08-24 13:48:00,
2013-08-24 08:03:00,48.0,46.0,29.94,SSW,195,0.0,0.0,92,0.00,,,0.01,weatherlink.com 1.10,2013-08-24 14:03:00,
2013-08-24 08:18:00,49.6,47.0,29.95,SSW,195,0.0,0.0,90,0.00,,,0.01,weatherlink.com 1.10,2013-08-24 14:18:00,
2013-08-24 08:33:00,51.9,46.0,29.95,SSW,195,0.0,1.0,80,0.00,,,0.01,weatherlink.com 1.10,2013-08-24 14:33:00,
2013-08-24 08:48:00,52.9,47.0,29.95,South,181,0.0,2.0,79,0.00,,,0.01,weatherlink.com 1.10,2013-08-24 14:48:00,
2013-08-24 09:03:00,54.4,48.0,29.95,South,181,1.0,1.0,78,0.00,,,0.01,weatherlink.com 1.10,2013-08-24 15:03:00,
2013-08-24 09:18:00,54.0,47.0,29.95,SSE,168,1.0,3.0,77,0.00,,,0.01,weatherlink.com 1.10,2013-08-24 15:18:00,
2013-08-24 09:33:00,53.7,46.0,29.94,South,172,0.0,2.0,75,0.00,,,0.01,weatherlink.com 1.10,2013-08-24 15:33:00,
2013-08-24 09:48:00,54.8,47.0,29.94,South,179,0.0,0.0,76,0.00,,,0.01,weatherlink.com 1.10,2013-08-24 15:48:00,
2013-08-24 10:03:00,56.2,47.0,29.95,South,177,0.0,2.0,72,0.00,,,0.01,weatherlink.com 1.10,2013-08-24 16:03:00,
2013-08-24 10:18:00,56.3,46.0,29.95,South,174,0.0,2.0,68,0.00,,,0.01,weatherlink.com 1.10,2013-08-24 16:18:00,
2013-08-24 10:34:00,57.2,47.0,29.95,South,174,1.0,1.0,68,0.00,,,0.01,weatherlink.com 1.10,2013-08-24 16:34:00,
2013-08-24 10:49:00,57.9,47.0,29.95,South,174,0.0,1.0,67,0.00,,,0.01,weatherlink.com 1.10,2013-08-24 16:49:00,
2013-08-24 11:04:00,61.3,45.0,29.94,SSE,160,2.0,4.0,56,0.00,,,0.01,weatherlink.com 1.10,2013-08-24 17:04:00,
2013-08-24 11:19:00,62.1,45.0,29.94,SSE,150,4.0,5.0,54,0.00,,,0.01,weatherlink.com 1.10,2013-08-24 17:19:00,
2013-08-24 11:34:00,61.6,44.0,29.94,SSE,163,3.0,8.0,52,0.00,,,0.01,weatherlink.com 1.10,2013-08-24 17:34:00,
2013-08-24 11:49:00,63.3,44.0,29.93,South,176,2.0,11.0,49,0.00,,,0.01,weatherlink.com 1.10,2013-08-24 17:49:00,
2013-08-24 12:04:00,63.7,42.0,29.93,South,173,2.0,9.0,45,0.00,,,0.01,weatherlink.com 1.10,2013-08-24 18:04:00,
2013-08-24 12:19:00,63.3,41.0,29.93,SSE,148,6.0,10.0,45,0.00,,,0.01,weatherlink.com 1.10,2013-08-24 18:19:00,
2013-08-24 12:34:00,63.2,44.0,29.93,SSE,158,2.0,8.0,49,0.00,,,0.01,weatherlink.com 1.10,2013-08-24 18:34:00,
2013-08-24 12:49:00,64.2,42.0,29.93,SSE,165,2.0,5.0,45,0.00,,,0.01,weatherlink.com 1.10,2013-08-24 18:49:00,
2013-08-24 13:04:00,66.1,45.0,29.92,SSE,158,3.0,11.0,47,0.00,,,0.01,weatherlink.com 1.10,2013-08-24 19:04:00,
2013-08-24 13:19:00,65.6,43.0,29.92,ESE,122,8.0,8.0,44,0.00,,,0.01,weatherlink.com 1.10,2013-08-24 19:19:00,
2013-08-24 13:34:00,66.1,42.0,29.91,SSE,161,2.0,11.0,42,0.00,,,0.01,weatherlink.com 1.10,2013-08-24 19:34:00,
2013-08-24 13:49:00,64.1,43.0,29.91,SSE,162,3.0,12.0,46,0.00,,,0.01,weatherlink.com 1.10,2013-08-24 19:49:00,
2013-08-24 14:04:00,64.5,44.0,29.91,SSE,160,3.0,6.0,48,0.00,,,0.01,weatherlink.com 1.10,2013-08-24 20:04:00,
2013-08-24 14:19:00,65.2,44.0,29.91,SSE,166,2.0,11.0,46,0.00,,,0.01,weatherlink.com 1.10,2013-08-24 20:19:00,
2013-08-24 14:34:00,66.7,44.0,29.90,SE,129,7.0,9.0,44,0.00,,,0.01,weatherlink.com 1.10,2013-08-24 20:34:00,
2013-08-24 14:49:00,66.0,43.0,29.89,South,169,2.0,9.0,44,0.00,,,0.01,weatherlink.com 1.10,2013-08-24 20:49:00,
2013-08-24 15:04:00,65.9,42.0,29.89,SSW,202,1.0,8.0,42,0.00,,,0.01,weatherlink.com 1.10,2013-08-24 21:04:00,
2013-08-24 15:19:00,67.1,42.0,29.89,SSE,164,5.0,11.0,40,0.00,,,0.01,weatherlink.com 1.10,2013-08-24 21:19:00,
2013-08-24 15:34:00,65.5,42.0,29.89,SSE,154,5.0,11.0,42,0.00,,,0.01,weatherlink.com 1.10,2013-08-24 21:34:00,
2013-08-24 15:49:00,64.4,42.0,29.89,South,175,3.0,9.0,45,0.00,,,0.01,weatherlink.com 1.10,2013-08-24 21:49:00,
2013-08-24 16:05:00,63.6,42.0,29.90,South,176,2.0,5.0,46,0.00,,,0.01,weatherlink.com 1.10,2013-08-24 22:05:00,
2013-08-24 16:19:00,63.0,42.0,29.91,SSE,152,3.0,5.0,47,0.00,,,0.01,weatherlink.com 1.10,2013-08-24 22:19:00,
2013-08-24 16:34:00,60.5,45.0,29.92,South,179,0.0,2.0,58,0.00,,,0.01,weatherlink.com 1.10,2013-08-24 22:34:00,
2013-08-24 16:49:00,58.0,48.0,29.92,SSW,208,0.0,3.0,69,0.00,,,0.01,weatherlink.com 1.10,2013-08-24 22:49:00,
2013-08-24 17:04:00,57.6,49.0,29.92,South,187,0.0,1.0,73,0.01,,,0.02,weatherlink.com 1.10,2013-08-24 23:04:00,
2013-08-24 17:19:00,58.0,47.0,29.92,South,181,0.0,2.0,66,0.01,,,0.02,weatherlink.com 1.10,2013-08-24 23:19:00,
2013-08-24 17:34:00,58.0,48.0,29.93,South,191,1.0,3.0,70,0.01,,,0.02,weatherlink.com 1.10,2013-08-24 23:34:00,
2013-08-24 17:49:00,57.9,48.0,29.93,South,189,0.0,2.0,69,0.01,,,0.02,weatherlink.com 1.10,2013-08-24 23:49:00,
2013-08-24 18:04:00,58.3,49.0,29.91,South,189,0.0,0.0,72,0.00,,,0.02,weatherlink.com 1.10,2013-08-25 00:04:00,
2013-08-24 18:19:00,58.9,50.0,29.91,SSW,195,0.0,0.0,72,0.00,,,0.02,weatherlink.com 1.10,2013-08-25 00:19:00,
2013-08-24 18:34:00,58.7,48.0,29.90,SSW,195,0.0,1.0,67,0.00,,,0.02,weatherlink.com 1.10,2013-08-25 00:34:00,
2013-08-24 18:49:00,59.7,48.0,29.90,SSW,195,0.0,2.0,65,0.00,,,0.02,weatherlink.com 1.10,2013-08-25 00:49:00,
2013-08-24 19:04:00,61.1,47.0,29.90,South,184,2.0,2.0,61,0.00,,,0.02,weatherlink.com 1.10,2013-08-25 01:04:00,
2013-08-24 19:19:00,59.1,48.0,29.91,South,179,1.0,2.0,67,0.00,,,0.02,weatherlink.com 1.10,2013-08-25 01:19:00,
2013-08-24 19:34:00,57.5,49.0,29.91,South,179,0.0,1.0,74,0.00,,,0.02,weatherlink.com 1.10,2013-08-25 01:34:00,
2013-08-24 19:49:00,55.3,49.0,29.91,South,179,0.0,0.0,79,0.00,,,0.02,weatherlink.com 1.10,2013-08-25 01:49:00,
2013-08-24 20:04:00,53.7,48.0,29.91,South,179,0.0,0.0,81,0.00,,,0.02,weatherlink.com 1.10,2013-08-25 02:04:00,
2013-08-24 20:19:00,52.1,47.0,29.92,South,179,0.0,0.0,83,0.00,,,0.02,weatherlink.com 1.10,2013-08-25 02:19:00,
2013-08-24 20:34:00,50.8,47.0,29.93,South,191,0.0,1.0,85,0.00,,,0.02,weatherlink.com 1.10,2013-08-25 02:34:00,
2013-08-24 20:49:00,50.0,46.0,29.94,South,191,0.0,0.0,86,0.00,,,0.02,weatherlink.com 1.10,2013-08-25 02:49:00,
2013-08-24 21:04:00,48.8,45.0,29.96,South,191,0.0,0.0,88,0.00,,,0.02,weatherlink.com 1.10,2013-08-25 03:04:00,
2013-08-24 21:19:00,48.1,45.0,29.97,South,191,0.0,1.0,89,0.00,,,0.02,weatherlink.com 1.10,2013-08-25 03:19:00,
2013-08-24 21:34:00,47.3,45.0,29.97,South,191,0.0,0.0,90,0.00,,,0.02,weatherlink.com 1.10,2013-08-25 03:34:00,
2013-08-24 21:49:00,46.7,44.0,29.98,South,191,0.0,0.0,91,0.00,,,0.02,weatherlink.com 1.10,2013-08-25 03:49:00,
2013-08-24 22:04:00,46.4,44.0,29.99,South,191,0.0,0.0,91,0.00,,,0.02,weatherlink.com 1.10,2013-08-25 04:04:00,
2013-08-24 22:20:00,46.0,44.0,30.00,South,191,0.0,1.0,91,0.00,,,0.02,weatherlink.com 1.10,2013-08-25 04:20:00,
2013-08-24 22:35:00,46.1,44.0,30.00,South,191,0.0,1.0,91,0.00,,,0.02,weatherlink.com 1.10,2013-08-25 04:35:00,
2013-08-24 22:50:00,46.4,44.0,30.00,South,191,0.0,1.0,90,0.00,,,0.02,weatherlink.com 1.10,2013-08-25 04:50:00,
2013-08-24 23:05:00,46.1,43.0,30.01,South,191,0.0,1.0,90,0.00,,,0.02,weatherlink.com 1.10,2013-08-25 05:05:00,
2013-08-24 23:20:00,46.0,43.0,30.02,South,191,0.0,0.0,90,0.00,,,0.02,weatherlink.com 1.10,2013-08-25 05:20:00,
2013-08-24 23:35:00,45.8,43.0,30.02,South,191,0.0,1.0,91,0.00,,,0.02,weatherlink.com 1.10,2013-08-25 05:35:00,
2013-08-24 23:50:00,46.2,44.0,30.02,South,191,0.0,1.0,91,0.00,,,0.02,weatherlink.com 1.10,2013-08-25 05:50:00,